Time;durP1;ratioP1;P1;durP2;ratioP2;P2;SDS_P1;SDS_P2;PMS_P1;PMS_P2;Temp;Humidity;BMP_temperature;BMP_pressure;BME280_temperature;BME280_humidity;BME280_pressure;Samples;Min_cycle;Max_cycle;Signal;HPM_P1;HPM_P2
2021/10/07 00:02:05;;;;;;;7.17;6.00;;;6.50;99.90;;;;;;5028954;28;20389;-85
2021/10/07 00:04:31;;;;;;;7.10;6.28;;;6.40;99.90;;;;;;5026898;28;20390;-85
2021/10/07 00:06:57;;;;;;;7.10;6.40;;;6.50;99.90;;;;;;5052754;28;20845;-85
2021/10/07 00:09:23;;;;;;;8.30;6.32;;;6.40;99.90;;;;;;5034050;28;20375;-86
2021/10/07 00:11:50;;;;;;;8.70;6.17;;;6.40;99.90;;;;;;5019756;28;20883;-85
2021/10/07 00:14:16;;;;;;;8.60;6.07;;;6.40;99.90;;;;;;5042086;28;20470;-85
2021/10/07 00:16:42;;;;;;;9.00;6.60;;;6.40;99.90;;;;;;5032277;28;20806;-85
2021/10/07 00:19:08;;;;;;;7.38;6.07;;;6.30;99.90;;;;;;5033376;28;20386;-85
2021/10/07 00:21:34;;;;;;;7.72;6.53;;;6.30;99.90;;;;;;5051922;28;20861;-85
2021/10/07 00:26:31;;;;;;;7.43;6.25;;;6.20;99.90;;;;;;5051541;28;20388;-85
2021/10/07 00:29:02;;;;;;;7.17;6.37;;;6.20;99.90;;;;;;5021413;28;20389;-85
2021/10/07 00:31:33;;;;;;;7.40;6.22;;;6.20;99.90;;;;;;5014134;28;20378;-85
2021/10/07 00:36:57;;;;;;;7.90;6.50;;;6.10;99.90;;;;;;5050842;28;20785;-85
2021/10/07 00:39:23;;;;;;;7.75;6.95;;;6.10;99.90;;;;;;5034074;28;20372;-85
2021/10/07 00:41:50;;;;;;;7.72;6.05;;;6.00;99.90;;;;;;5051375;28;20434;-85
2021/10/07 00:44:16;;;;;;;7.72;6.30;;;6.00;99.90;;;;;;5023527;28;20883;-85
2021/10/07 00:46:53;;;;;;;7.05;6.28;;;6.00;99.90;;;;;;5014813;28;20405;-86
2021/10/07 00:49:22;;;;;;;9.80;7.10;;;6.00;99.90;;;;;;5049686;28;20379;-85
2021/10/07 00:51:47;;;;;;;7.78;6.90;;;6.00;99.90;;;;;;5015241;28;20509;-86
2021/10/07 00:54:15;;;;;;;6.78;6.18;;;6.00;99.90;;;;;;5038663;28;20403;-86
2021/10/07 00:56:42;;;;;;;7.35;6.65;;;6.00;99.90;;;;;;5032447;28;20762;-85
2021/10/07 00:59:08;;;;;;;6.93;6.32;;;6.00;99.90;;;;;;5031926;28;20392;-85
2021/10/07 01:01:33;;;;;;;9.05;7.03;;;5.90;99.90;;;;;;5032807;28;20387;-85
2021/10/07 01:03:59;;;;;;;7.75;6.53;;;5.90;99.90;;;;;;5043350;28;20389;-85
2021/10/07 01:06:24;;;;;;;8.03;6.70;;;5.90;99.90;;;;;;5030845;28;20398;-85
2021/10/07 01:08:51;;;;;;;7.70;6.47;;;5.90;99.90;;;;;;5013008;28;20416;-86
2021/10/07 01:11:16;;;;;;;8.90;7.07;;;5.80;99.90;;;;;;5023158;28;21263;-86
2021/10/07 01:13:42;;;;;;;10.57;7.83;;;5.80;99.90;;;;;;5045378;28;20392;-86
2021/10/07 01:16:08;;;;;;;8.77;7.37;;;5.80;99.90;;;;;;5031671;28;20939;-86
2021/10/07 01:18:34;;;;;;;8.63;7.73;;;5.80;99.90;;;;;;5048074;28;20383;-86
2021/10/07 01:21:00;;;;;;;7.72;6.93;;;5.70;99.90;;;;;;5041318;28;20392;-85
2021/10/07 01:23:26;;;;;;;7.57;6.82;;;5.70;99.90;;;;;;5030437;28;20397;-85
2021/10/07 01:25:52;;;;;;;8.00;7.30;;;5.60;99.90;;;;;;5049534;28;20884;-85
2021/10/07 01:28:18;;;;;;;8.17;7.27;;;5.70;99.90;;;;;;5024979;28;20412;-86
2021/10/07 01:30:43;;;;;;;8.07;7.20;;;5.60;99.90;;;;;;5012887;28;20374;-86
2021/10/07 01:33:09;;;;;;;8.90;8.00;;;5.60;99.90;;;;;;5036416;28;20383;-86
2021/10/07 01:35:35;;;;;;;8.75;7.55;;;5.60;99.90;;;;;;5032838;28;20500;-85
2021/10/07 01:38:01;;;;;;;8.32;7.50;;;5.60;99.90;;;;;;5013501;28;20384;-86
2021/10/07 01:40:27;;;;;;;7.43;6.53;;;5.60;99.90;;;;;;5030404;28;20366;-86
2021/10/07 01:42:52;;;;;;;9.43;7.37;;;5.60;99.90;;;;;;5030354;28;20390;-87
2021/10/07 01:45:18;;;;;;;8.02;7.22;;;5.50;99.90;;;;;;5012357;28;20365;-86
2021/10/07 01:47:44;;;;;;;7.78;7.05;;;5.50;99.90;;;;;;5018516;28;20382;-86
2021/10/07 01:50:11;;;;;;;8.95;7.57;;;5.60;99.90;;;;;;5032069;28;20418;-86
2021/10/07 01:52:37;;;;;;;8.65;7.85;;;5.50;99.90;;;;;;5031255;28;20379;-85
2021/10/07 01:55:03;;;;;;;9.10;7.77;;;5.50;99.90;;;;;;5031807;28;20400;-86
2021/10/07 01:57:29;;;;;;;9.32;8.00;;;5.40;99.90;;;;;;5030361;28;20873;-87
2021/10/07 01:59:54;;;;;;;8.73;7.93;;;5.40;99.90;;;;;;5021554;28;20393;-86
2021/10/07 02:02:20;;;;;;;9.20;7.73;;;5.40;99.90;;;;;;5013963;28;20519;-86
2021/10/07 02:04:45;;;;;;;9.88;7.72;;;5.30;99.90;;;;;;5012747;28;20400;-85
2021/10/07 02:07:11;;;;;;;7.83;7.03;;;5.30;99.90;;;;;;5015648;28;20387;-85
2021/10/07 02:09:36;;;;;;;8.50;7.70;;;5.30;99.90;;;;;;5050288;28;20379;-86
2021/10/07 02:12:02;;;;;;;8.65;7.22;;;5.30;99.90;;;;;;5048133;28;20375;-85
2021/10/07 02:14:28;;;;;;;11.20;8.55;;;5.30;99.90;;;;;;5024865;28;20484;-86
2021/10/07 02:16:53;;;;;;;10.43;7.70;;;5.30;99.90;;;;;;5012549;28;20404;-86
2021/10/07 02:19:19;;;;;;;9.00;7.83;;;5.30;99.90;;;;;;5018743;28;20404;-86
2021/10/07 02:21:45;;;;;;;8.47;7.63;;;5.20;99.90;;;;;;5012203;28;20440;-86
2021/10/07 02:24:11;;;;;;;7.57;6.88;;;5.20;99.90;;;;;;5028658;28;20960;-86
2021/10/07 02:26:37;;;;;;;10.15;7.97;;;5.20;99.90;;;;;;5049591;28;20393;-85
2021/10/07 02:29:03;;;;;;;8.45;7.57;;;5.20;99.90;;;;;;5026300;28;20379;-86
2021/10/07 02:31:30;;;;;;;7.65;7.00;;;5.20;99.90;;;;;;5048908;28;20399;-85
2021/10/07 02:33:55;;;;;;;7.93;6.97;;;5.20;99.90;;;;;;5048064;28;20384;-86
2021/10/07 02:36:24;;;;;;;7.47;6.77;;;5.20;99.90;;;;;;5032197;28;20382;-85
2021/10/07 02:38:51;;;;;;;7.68;6.90;;;5.10;99.90;;;;;;5024950;28;20373;-86
2021/10/07 02:41:17;;;;;;;9.23;7.78;;;5.10;99.90;;;;;;5029743;28;20376;-86
2021/10/07 02:43:42;;;;;;;11.20;7.60;;;5.10;99.90;;;;;;5030087;28;20536;-87
2021/10/07 02:46:09;;;;;;;10.38;8.02;;;5.00;99.90;;;;;;5013245;28;20466;-86
2021/10/07 02:48:35;;;;;;;7.80;7.03;;;5.00;99.90;;;;;;5039534;28;20379;-86
2021/10/07 02:51:01;;;;;;;8.48;6.78;;;5.00;99.90;;;;;;5025957;28;20405;-86
2021/10/07 02:53:30;;;;;;;8.50;7.70;;;5.00;99.90;;;;;;5029756;28;21179;-86
2021/10/07 02:55:56;;;;;;;8.88;7.40;;;5.00;99.90;;;;;;5020397;28;20397;-85
2021/10/07 02:58:22;;;;;;;7.78;6.93;;;5.00;99.90;;;;;;5014876;28;20445;-86
2021/10/07 03:00:48;;;;;;;7.63;6.90;;;5.00;99.90;;;;;;5033050;28;20389;-85
2021/10/07 03:03:13;;;;;;;8.73;7.33;;;5.00;99.90;;;;;;5042285;28;20429;-87
2021/10/07 03:05:39;;;;;;;8.13;7.33;;;5.00;99.90;;;;;;5028529;28;20491;-85
2021/10/07 03:08:05;;;;;;;7.45;6.82;;;5.00;99.90;;;;;;5015592;28;20867;-86
2021/10/07 03:10:31;;;;;;;7.40;6.70;;;5.00;99.90;;;;;;5035047;28;20379;-86
2021/10/07 03:12:56;;;;;;;7.70;6.85;;;5.00;99.90;;;;;;5034994;28;20371;-87
2021/10/07 03:15:22;;;;;;;7.20;6.60;;;5.00;99.90;;;;;;5035950;28;20941;-86
2021/10/07 03:17:47;;;;;;;9.63;6.67;;;4.90;99.90;;;;;;5032973;28;20398;-86
2021/10/07 03:20:13;;;;;;;7.80;7.00;;;4.90;99.90;;;;;;5052708;28;20368;-87
2021/10/07 03:22:40;;;;;;;9.13;7.50;;;4.90;99.90;;;;;;5052877;28;20785;-87
2021/10/07 03:25:06;;;;;;;10.27;7.47;;;4.90;99.90;;;;;;5022300;28;20389;-87
2021/10/07 03:27:31;;;;;;;7.53;6.82;;;4.80;99.90;;;;;;5034759;28;20371;-87
2021/10/07 03:29:57;;;;;;;9.10;7.00;;;4.80;99.90;;;;;;5052576;28;20797;-87
2021/10/07 03:32:23;;;;;;;9.13;6.85;;;4.90;99.90;;;;;;5034118;28;20450;-85
2021/10/07 03:34:49;;;;;;;7.35;6.65;;;4.80;99.90;;;;;;5052582;28;20475;-87
2021/10/07 03:37:14;;;;;;;7.63;6.93;;;4.90;99.90;;;;;;5052263;28;20861;-86
2021/10/07 03:39:40;;;;;;;7.60;6.90;;;4.80;99.90;;;;;;5052294;28;20375;-85
2021/10/07 03:42:05;;;;;;;7.70;7.10;;;4.90;99.90;;;;;;5052134;28;20383;-87
2021/10/07 03:44:31;;;;;;;7.60;6.75;;;4.80;99.90;;;;;;5034258;28;20418;-86
2021/10/07 03:46:57;;;;;;;8.00;7.20;;;4.80;99.90;;;;;;5046772;28;20382;-87
2021/10/07 03:49:22;;;;;;;7.57;6.80;;;4.80;99.90;;;;;;5032427;28;20445;-84
2021/10/07 03:51:48;;;;;;;9.57;6.77;;;4.80;99.90;;;;;;5051341;28;20445;-86
2021/10/07 03:54:13;;;;;;;7.27;6.60;;;4.70;99.90;;;;;;5034248;28;20433;-87
2021/10/07 03:56:39;;;;;;;7.35;6.10;;;4.70;99.90;;;;;;5046911;28;20403;-86
2021/10/07 03:59:05;;;;;;;9.02;6.30;;;4.70;99.90;;;;;;5031971;28;20404;-85
2021/10/07 04:01:31;;;;;;;7.22;6.53;;;4.70;99.90;;;;;;5033400;28;20385;-88
2021/10/07 04:03:57;;;;;;;7.55;6.85;;;4.70;99.90;;;;;;5015460;28;20942;-85
2021/10/07 04:06:22;;;;;;;7.18;6.60;;;4.60;99.90;;;;;;5041306;28;20371;-85
2021/10/07 04:08:48;;;;;;;7.07;6.37;;;4.60;99.90;;;;;;5031745;28;20754;-87
2021/10/07 04:11:14;;;;;;;7.80;7.00;;;4.70;99.90;;;;;;5018091;28;20375;-88
2021/10/07 04:13:39;;;;;;;7.55;6.75;;;4.60;99.90;;;;;;5051880;28;20893;-87
2021/10/07 04:16:05;;;;;;;8.60;6.90;;;4.60;99.90;;;;;;5027320;28;20474;-86
2021/10/07 04:18:30;;;;;;;8.17;7.37;;;4.60;99.90;;;;;;5033186;28;20380;-86
2021/10/07 04:20:56;;;;;;;8.80;7.90;;;4.60;99.90;;;;;;5045016;28;20739;-85
2021/10/07 04:23:22;;;;;;;8.70;7.90;;;4.50;99.90;;;;;;5029543;28;20376;-86
2021/10/07 04:25:47;;;;;;;7.18;6.43;;;4.60;99.90;;;;;;5049917;28;20379;-85
2021/10/07 04:28:13;;;;;;;9.50;7.93;;;4.60;99.90;;;;;;5014704;28;20412;-85
2021/10/07 04:30:39;;;;;;;9.20;7.90;;;4.50;99.90;;;;;;5013628;28;20396;-84
2021/10/07 04:33:09;;;;;;;8.40;7.60;;;4.40;99.90;;;;;;5038735;28;20394;-85
2021/10/07 04:35:35;;;;;;;8.15;7.28;;;4.40;99.90;;;;;;5048904;28;20440;-84
2021/10/07 04:38:00;;;;;;;8.88;8.07;;;4.40;99.90;;;;;;5013753;28;20382;-85
2021/10/07 04:40:26;;;;;;;8.90;8.10;;;4.50;99.90;;;;;;5013552;28;20737;-84
2021/10/07 04:42:52;;;;;;;8.77;7.88;;;4.50;99.90;;;;;;5031325;28;20475;-85
2021/10/07 04:45:18;;;;;;;9.07;7.72;;;4.50;99.90;;;;;;5025957;28;20468;-87
2021/10/07 04:47:44;;;;;;;9.13;7.55;;;4.40;99.90;;;;;;5037613;28;20383;-84
2021/10/07 04:50:10;;;;;;;7.93;7.00;;;4.40;99.90;;;;;;5032958;28;20401;-87
2021/10/07 04:52:35;;;;;;;7.75;7.05;;;4.40;99.90;;;;;;5034607;28;20415;-86
2021/10/07 04:55:02;;;;;;;8.55;7.75;;;4.40;99.90;;;;;;5031518;28;20385;-87
2021/10/07 04:57:29;;;;;;;7.63;6.82;;;4.40;99.90;;;;;;5032632;28;20959;-87
2021/10/07 04:59:55;;;;;;;7.32;6.72;;;4.30;99.90;;;;;;5032898;28;20395;-87
2021/10/07 05:02:21;;;;;;;8.45;7.65;;;4.30;99.90;;;;;;5035946;28;20476;-86
2021/10/07 05:04:47;;;;;;;9.35;8.45;;;4.30;99.90;;;;;;5013222;28;20370;-84
2021/10/07 05:07:13;;;;;;;8.90;7.77;;;4.30;99.90;;;;;;5022074;28;20386;-87
2021/10/07 05:09:39;;;;;;;8.97;8.17;;;4.30;99.90;;;;;;5032809;28;20380;-84
2021/10/07 05:12:06;;;;;;;9.05;8.13;;;4.30;99.90;;;;;;5050483;28;20384;-86
2021/10/07 05:14:31;;;;;;;9.87;8.40;;;4.30;99.90;;;;;;5032913;28;20746;-85
2021/10/07 05:16:57;;;;;;;9.23;8.33;;;4.30;99.90;;;;;;5050429;28;20378;-87
2021/10/07 05:19:22;;;;;;;9.77;8.68;;;4.30;99.90;;;;;;5050035;28;20431;-85
2021/10/07 05:21:48;;;;;;;8.55;7.78;;;4.30;99.90;;;;;;5032917;28;20395;-86
2021/10/07 05:24:15;;;;;;;8.67;7.77;;;4.30;99.90;;;;;;5033566;28;20427;-86
2021/10/07 05:26:40;;;;;;;9.60;8.60;;;4.30;99.90;;;;;;5025136;28;20736;-85
2021/10/07 05:29:06;;;;;;;8.40;7.70;;;4.30;99.90;;;;;;5012233;28;20396;-88
2021/10/07 05:31:32;;;;;;;7.93;7.30;;;4.30;99.90;;;;;;5013015;28;20382;-84
2021/10/07 05:33:58;;;;;;;7.45;6.75;;;4.30;99.90;;;;;;5029751;28;20874;-86
2021/10/07 05:36:23;;;;;;;7.80;7.20;;;4.30;99.90;;;;;;5030626;28;20403;-85
2021/10/07 05:38:49;;;;;;;7.33;6.63;;;4.30;99.90;;;;;;5011928;28;20370;-86
2021/10/07 05:41:15;;;;;;;7.07;6.47;;;4.30;99.90;;;;;;5029880;28;20468;-87
2021/10/07 05:43:40;;;;;;;7.45;6.72;;;4.30;99.90;;;;;;5012901;28;20420;-87
2021/10/07 05:46:06;;;;;;;6.50;5.90;;;4.30;99.90;;;;;;5012901;28;20400;-85
2021/10/07 05:48:33;;;;;;;6.80;6.10;;;4.40;99.90;;;;;;5029858;28;20771;-86
2021/10/07 05:50:59;;;;;;;8.00;7.20;;;4.40;99.90;;;;;;5030433;28;20939;-84
2021/10/07 05:53:25;;;;;;;7.45;6.75;;;4.40;99.90;;;;;;5030243;28;20377;-86
2021/10/07 05:55:50;;;;;;;7.57;6.77;;;4.50;99.90;;;;;;5012726;28;20929;-88
2021/10/07 05:58:16;;;;;;;6.73;6.20;;;4.50;99.90;;;;;;5012175;28;20910;-85
2021/10/07 06:00:41;;;;;;;6.70;6.10;;;4.60;99.90;;;;;;5012422;28;20473;-86
2021/10/07 06:03:10;;;;;;;6.90;6.22;;;4.60;99.90;;;;;;5030259;28;20400;-88
2021/10/07 06:05:40;;;;;;;51.08;13.50;;;4.70;99.90;;;;;;5012176;28;20787;-86
2021/10/07 06:08:06;;;;;;;633.50;96.97;;;4.80;99.90;;;;;;5012087;28;20373;-85
2021/10/07 06:10:32;;;;;;;186.55;37.08;;;5.00;99.90;;;;;;5030014;28;20410;-85
2021/10/07 06:12:58;;;;;;;323.80;56.53;;;5.10;99.90;;;;;;5012561;28;20879;-85
2021/10/07 06:15:26;;;;;;;734.23;102.67;;;5.20;99.90;;;;;;5029894;28;20452;-87
2021/10/07 06:17:52;;;;;;;109.03;21.13;;;5.50;99.90;;;;;;5012221;28;20396;-85
2021/10/07 06:20:30;;;;;;;113.57;23.88;;;5.60;99.90;;;;;;5040654;28;20499;-84
2021/10/07 06:22:57;;;;;;;419.50;71.80;;;5.70;99.90;;;;;;5049719;28;20379;-86
2021/10/07 06:25:23;;;;;;;11.10;10.18;;;5.80;99.90;;;;;;5049646;28;20391;-85
2021/10/07 06:27:50;;;;;;;10.95;9.85;;;6.00;99.90;;;;;;5049698;28;20364;-85
2021/10/07 06:30:17;;;;;;;8.20;7.35;;;6.10;99.90;;;;;;5031675;28;20921;-85
2021/10/07 06:32:44;;;;;;;10.88;9.77;;;6.30;99.90;;;;;;5045397;28;20388;-85
2021/10/07 06:35:11;;;;;;;10.40;9.52;;;6.30;99.90;;;;;;5036653;28;20367;-86
2021/10/07 06:37:36;;;;;;;10.48;9.32;;;6.40;99.90;;;;;;5031234;28;20379;-85
2021/10/07 06:40:03;;;;;;;8.48;7.78;;;6.60;99.90;;;;;;5030746;28;20394;-85
2021/10/07 06:42:30;;;;;;;8.43;7.63;;;6.80;99.90;;;;;;5042177;28;20405;-86
2021/10/07 06:44:55;;;;;;;6.75;6.10;;;6.90;99.90;;;;;;5042145;28;20410;-87
2021/10/07 06:47:21;;;;;;;7.63;6.87;;;7.20;99.90;;;;;;5059269;28;20378;-85
2021/10/07 06:49:46;;;;;;;9.52;8.45;;;7.30;99.90;;;;;;5043100;28;20877;-87
2021/10/07 06:52:12;;;;;;;20.17;15.47;;;7.40;99.90;;;;;;5042322;28;20827;-87
2021/10/07 06:54:38;;;;;;;10.70;9.65;;;7.60;99.90;;;;;;5042487;28;20421;-87
2021/10/07 06:57:03;;;;;;;9.02;8.13;;;7.70;99.90;;;;;;5042889;28;20391;-86
2021/10/07 06:59:29;;;;;;;8.63;7.93;;;7.80;99.90;;;;;;5058490;28;20384;-87
2021/10/07 07:01:55;;;;;;;8.33;7.40;;;8.00;99.90;;;;;;5041681;28;20469;-85
2021/10/07 07:04:20;;;;;;;9.47;8.57;;;8.10;99.90;;;;;;5042743;28;20490;-86
2021/10/07 07:06:46;;;;;;;8.20;7.43;;;8.30;99.90;;;;;;5061226;28;20917;-85
2021/10/07 07:09:12;;;;;;;9.03;8.23;;;8.40;99.90;;;;;;5042310;28;20901;-85
2021/10/07 07:11:38;;;;;;;8.48;7.57;;;8.70;99.90;;;;;;5059792;28;20885;-84
2021/10/07 07:14:05;;;;;;;8.68;7.88;;;8.90;99.90;;;;;;5042385;28;20374;-85
2021/10/07 07:16:33;;;;;;;7.93;7.32;;;9.20;99.90;;;;;;5042936;28;20463;-84
2021/10/07 07:18:59;;;;;;;8.52;7.72;;;9.40;99.90;;;;;;5042121;28;20743;-84
2021/10/07 07:21:29;;;;;;;8.63;7.30;;;9.70;99.90;;;;;;5042846;28;20740;-84
2021/10/07 07:23:55;;;;;;;7.40;6.57;;;9.90;99.90;;;;;;5059821;28;20414;-84
2021/10/07 07:26:21;;;;;;;6.32;5.72;;;10.30;99.90;;;;;;5060110;28;20411;-84
2021/10/07 07:28:46;;;;;;;6.10;5.57;;;10.50;99.90;;;;;;5037047;28;20400;-83
2021/10/07 07:31:12;;;;;;;6.78;5.95;;;10.80;99.90;;;;;;5038607;28;20417;-85
2021/10/07 07:33:37;;;;;;;6.93;6.07;;;11.00;99.90;;;;;;5033003;28;20380;-84
2021/10/07 07:36:03;;;;;;;6.63;5.78;;;11.00;99.90;;;;;;5015141;28;20388;-84
2021/10/07 07:38:29;;;;;;;7.85;7.07;;;11.20;99.90;;;;;;5032429;28;20381;-85
2021/10/07 07:40:56;;;;;;;7.90;7.13;;;11.40;99.90;;;;;;5014751;28;20376;-84
2021/10/07 07:43:22;;;;;;;9.27;8.30;;;11.50;99.90;;;;;;5040593;28;20470;-85
2021/10/07 07:45:50;;;;;;;7.73;7.03;;;11.70;99.90;;;;;;5021425;28;20472;-85
2021/10/07 07:48:16;;;;;;;7.15;6.35;;;11.80;99.90;;;;;;5014162;28;20427;-86
2021/10/07 07:50:42;;;;;;;8.20;7.13;;;11.90;99.90;;;;;;5014437;28;20766;-85
2021/10/07 07:53:10;;;;;;;8.50;6.30;;;12.00;99.90;;;;;;5038343;28;20371;-86
2021/10/07 07:55:39;;;;;;;6.80;6.15;;;12.30;99.90;;;;;;5021313;28;20411;-85
2021/10/07 07:58:11;;;;;;;5.75;4.78;;;12.50;99.90;;;;;;5031395;28;20392;-85
2021/10/07 08:00:40;;;;;;;6.13;4.60;;;12.70;99.90;;;;;;5031923;28;20393;-85
2021/10/07 08:03:06;;;;;;;6.93;4.85;;;12.70;99.90;;;;;;5014225;28;20887;-86
2021/10/07 08:05:32;;;;;;;14.85;13.35;;;12.80;99.90;;;;;;5025006;28;20391;-85
2021/10/07 08:07:57;;;;;;;5.18;4.10;;;13.00;99.90;;;;;;5033542;28;20384;-85
2021/10/07 08:10:23;;;;;;;6.28;4.05;;;13.10;99.90;;;;;;5051677;28;20883;-86
2021/10/07 08:12:49;;;;;;;5.37;4.00;;;13.10;99.90;;;;;;5038793;28;20381;-86
2021/10/07 08:15:15;;;;;;;5.55;4.57;;;13.20;99.90;;;;;;5020464;28;20382;-85
2021/10/07 08:17:41;;;;;;;6.27;5.63;;;13.20;99.90;;;;;;5030779;28;20742;-86
2021/10/07 08:20:09;;;;;;;3.90;3.50;;;13.40;99.90;;;;;;5033910;28;20371;-86
2021/10/07 08:22:35;;;;;;;12.98;11.73;;;13.60;99.90;;;;;;5051205;28;20404;-85
2021/10/07 08:25:01;;;;;;;3.00;2.45;;;13.70;99.90;;;;;;5033762;28;20485;-85
2021/10/07 08:27:28;;;;;;;3.93;3.17;;;13.80;99.90;;;;;;5031640;28;20380;-86
2021/10/07 08:29:55;;;;;;;5.18;2.80;;;13.90;99.90;;;;;;5037988;28;20385;-86
2021/10/07 08:32:21;;;;;;;3.03;2.50;;;14.00;99.90;;;;;;5013829;28;20464;-85
2021/10/07 08:34:47;;;;;;;3.88;2.58;;;14.10;99.90;;;;;;5031445;28;20923;-86
2021/10/07 08:37:13;;;;;;;3.80;2.40;;;14.10;99.90;;;;;;5020306;28;20383;-85
2021/10/07 08:39:38;;;;;;;5.03;3.33;;;14.20;99.90;;;;;;5041270;28;20389;-86
2021/10/07 08:42:04;;;;;;;4.97;2.50;;;14.40;99.90;;;;;;5035538;28;20383;-85
2021/10/07 08:44:30;;;;;;;2.70;2.47;;;14.60;99.90;;;;;;5033274;28;20423;-85
2021/10/07 08:46:57;;;;;;;3.05;2.35;;;14.80;99.90;;;;;;5050807;28;20485;-86
2021/10/07 08:49:25;;;;;;;4.95;2.30;;;14.90;99.90;;;;;;5044387;28;20432;-85
2021/10/07 08:51:51;;;;;;;3.05;1.90;;;15.10;99.90;;;;;;5018427;28;20901;-86
2021/10/07 08:54:17;;;;;;;5.22;2.67;;;15.10;99.90;;;;;;5032394;28;20781;-85
2021/10/07 08:56:43;;;;;;;4.00;2.40;;;15.10;99.90;;;;;;5028233;28;20388;-86
2021/10/07 08:59:09;;;;;;;3.97;2.15;;;15.00;99.90;;;;;;5039654;28;20423;-85
2021/10/07 09:01:39;;;;;;;4.35;2.70;;;15.00;99.90;;;;;;5032270;28;20391;-85
2021/10/07 09:04:17;;;;;;;2.92;2.10;;;15.10;99.90;;;;;;5041125;28;20394;-87
2021/10/07 09:06:54;;;;;;;2.78;2.10;;;15.20;99.90;;;;;;5021813;28;20931;-87
2021/10/07 09:09:21;;;;;;;3.28;2.10;;;15.20;99.90;;;;;;5032517;28;20446;-85
2021/10/07 09:11:52;;;;;;;4.15;2.10;;;15.40;99.90;;;;;;5050788;28;20372;-86
2021/10/07 09:14:23;;;;;;;3.58;2.20;;;15.40;99.90;;;;;;5028730;28;20468;-86
2021/10/07 09:16:51;;;;;;;4.07;2.40;;;15.50;99.90;;;;;;5056405;28;20394;-86
2021/10/07 09:19:20;;;;;;;3.60;2.10;;;15.70;99.90;;;;;;5055825;28;20795;-86
2021/10/07 09:21:49;;;;;;;5.28;2.03;;;15.90;99.90;;;;;;5039684;28;20391;-87
2021/10/07 09:24:38;;;;;;;3.90;2.00;;;15.90;99.90;;;;;;5058148;28;20427;-86
2021/10/07 09:27:11;;;;;;;2.65;2.00;;;16.00;99.90;;;;;;5056947;28;20876;-86
2021/10/07 09:29:53;;;;;;;3.67;2.00;;;16.10;99.90;;;;;;5056734;28;20372;-85
2021/10/07 09:32:37;;;;;;;3.95;2.25;;;16.30;99.90;;;;;;5056281;28;20366;-85
2021/10/07 09:35:06;;;;;;;3.47;2.10;;;16.30;99.90;;;;;;5040204;28;20378;-85
2021/10/07 09:37:37;;;;;;;5.10;2.50;;;16.40;99.90;;;;;;5056480;28;20393;-86
2021/10/07 09:40:21;;;;;;;5.13;2.60;;;16.60;99.90;;;;;;5057606;28;21073;-85
2021/10/07 09:42:53;;;;;;;4.63;2.47;;;16.50;99.90;;;;;;5057624;28;20376;-85
2021/10/07 09:45:22;;;;;;;3.80;2.50;;;16.40;99.90;;;;;;5056850;28;20398;-87
2021/10/07 09:47:54;;;;;;;3.88;2.30;;;16.40;99.90;;;;;;5039884;28;20751;-86
2021/10/07 09:50:20;;;;;;;6.32;2.92;;;16.40;99.90;;;;;;5055754;28;20383;-85
2021/10/07 09:52:52;;;;;;;4.40;2.92;;;16.50;99.90;;;;;;5039914;28;20384;-86
2021/10/07 09:55:21;;;;;;;6.53;3.03;;;16.60;99.90;;;;;;5057828;28;20374;-86
2021/10/07 09:58:02;;;;;;;4.78;2.33;;;16.80;99.90;;;;;;5038736;28;20758;-86
2021/10/07 10:00:35;;;;;;;4.53;2.10;;;16.90;99.90;;;;;;5038485;28;20394;-85
2021/10/07 10:03:03;;;;;;;4.65;2.40;;;16.90;99.90;;;;;;5038390;28;20946;-86
2021/10/07 10:05:31;;;;;;;3.58;2.38;;;16.90;99.90;;;;;;5058019;28;20525;-86
2021/10/07 10:07:58;;;;;;;4.80;2.10;;;16.90;99.90;;;;;;5035201;28;20455;-86
2021/10/07 10:10:25;;;;;;;4.00;2.22;;;16.90;99.90;;;;;;5042664;28;20732;-86
2021/10/07 10:12:51;;;;;;;5.90;2.67;;;17.00;99.90;;;;;;5044024;28;20732;-86
2021/10/07 10:15:19;;;;;;;4.38;2.45;;;17.00;99.90;;;;;;5057498;28;20842;-86
2021/10/07 10:17:45;;;;;;;3.90;2.58;;;16.90;99.90;;;;;;5042257;28;21117;-86
2021/10/07 10:20:26;;;;;;;4.75;2.45;;;16.70;99.90;;;;;;5060134;28;20407;-86
2021/10/07 10:22:58;;;;;;;6.88;2.65;;;16.70;99.90;;;;;;5041942;28;20420;-86
2021/10/07 10:25:25;;;;;;;4.88;2.30;;;16.80;99.90;;;;;;5061329;28;20398;-87
2021/10/07 10:28:03;;;;;;;5.67;3.53;;;16.70;99.90;;;;;;5060434;28;20381;-86
2021/10/07 10:30:29;;;;;;;4.80;2.38;;;16.70;99.90;;;;;;5061178;28;20382;-85
2021/10/07 10:32:57;;;;;;;4.20;2.53;;;16.80;99.90;;;;;;5060762;28;20368;-87
2021/10/07 10:35:41;;;;;;;5.60;2.33;;;16.70;99.90;;;;;;5043335;28;20408;-86
2021/10/07 10:38:10;;;;;;;6.50;3.33;;;16.80;99.90;;;;;;5058977;28;20417;-86
2021/10/07 10:40:38;;;;;;;3.95;2.25;;;16.70;99.90;;;;;;5043425;28;20416;-86
2021/10/07 10:43:19;;;;;;;3.67;2.10;;;16.70;99.90;;;;;;5043184;28;20482;-86
2021/10/07 10:45:51;;;;;;;5.63;2.10;;;16.80;99.90;;;;;;5059751;28;20435;-87
2021/10/07 10:48:41;;;;;;;6.68;2.00;;;17.00;99.90;;;;;;5041150;28;20368;-86
2021/10/07 10:51:15;;;;;;;3.75;1.90;;;17.10;99.90;;;;;;5042444;28;20449;-86
2021/10/07 10:54:00;;;;;;;3.90;1.70;;;17.20;99.90;;;;;;5060005;28;20382;-87
2021/10/07 10:56:37;;;;;;;3.20;1.80;;;17.40;99.90;;;;;;5043304;28;20415;-87
2021/10/07 10:59:21;;;;;;;3.28;1.77;;;17.40;99.90;;;;;;5059712;28;20704;-86
2021/10/07 11:02:16;;;;;;;6.93;1.98;;;17.50;99.90;;;;;;5041999;28;21436;-87
2021/10/07 11:04:47;;;;;;;14.88;9.77;;;17.60;99.90;;;;;;5058396;28;20391;-87
2021/10/07 11:07:21;;;;;;;6.40;4.05;;;17.50;99.90;;;;;;5053087;28;20397;-85
2021/10/07 11:10:09;;;;;;;7.10;2.30;;;17.40;99.90;;;;;;5056433;28;20374;-87
2021/10/07 11:12:52;;;;;;;3.20;1.73;;;17.50;99.90;;;;;;5073438;28;20381;-87
2021/10/07 11:15:20;;;;;;;4.47;2.30;;;17.60;99.90;;;;;;5073775;28;20424;-86
2021/10/07 11:17:56;;;;;;;5.40;1.92;;;17.60;99.90;;;;;;5055074;28;20393;-86
2021/10/07 11:20:29;;;;;;;4.78;2.17;;;17.50;99.90;;;;;;5055480;28;20390;-86
2021/10/07 11:23:13;;;;;;;5.00;2.30;;;17.50;99.90;;;;;;5074010;28;20464;-87
2021/10/07 11:25:43;;;;;;;5.50;2.00;;;17.40;99.90;;;;;;5055624;28;20401;-86
2021/10/07 11:28:23;;;;;;;4.65;2.10;;;17.50;99.90;;;;;;5073257;28;20366;-86
2021/10/07 11:31:00;;;;;;;4.38;1.90;;;17.50;99.90;;;;;;5055322;28;20725;-86
2021/10/07 11:33:30;;;;;;;4.73;2.07;;;17.40;99.90;;;;;;5074289;28;20436;-87
2021/10/07 11:36:01;;;;;;;3.78;1.80;;;17.30;99.90;;;;;;5057806;28;20483;-87
2021/10/07 11:38:27;;;;;;;3.53;2.00;;;17.30;99.90;;;;;;5054965;28;20444;-87
2021/10/07 11:40:54;;;;;;;5.87;2.30;;;17.30;99.90;;;;;;5056505;28;20856;-87
2021/10/07 11:43:22;;;;;;;5.53;2.30;;;17.40;99.90;;;;;;5055871;28;20420;-87
2021/10/07 11:45:56;;;;;;;5.35;2.40;;;17.40;99.90;;;;;;5057439;28;20394;-87
2021/10/07 11:48:22;;;;;;;3.97;1.80;;;17.40;99.90;;;;;;5073934;28;20385;-86
2021/10/07 11:51:01;;;;;;;3.45;1.98;;;17.50;99.90;;;;;;5074054;28;20373;-88
2021/10/07 11:53:39;;;;;;;3.87;2.00;;;17.60;99.90;;;;;;5074046;28;20372;-85
2021/10/07 11:56:12;;;;;;;4.38;2.05;;;17.50;99.90;;;;;;5073047;28;20445;-87
2021/10/07 11:58:38;;;;;;;3.80;2.05;;;17.50;99.90;;;;;;5053001;28;20394;-86
2021/10/07 12:01:11;;;;;;;2.38;1.85;;;17.70;99.90;;;;;;5064601;28;20410;-87
2021/10/07 12:03:38;;;;;;;4.30;1.77;;;17.80;99.90;;;;;;5062631;28;20374;-86
2021/10/07 12:06:06;;;;;;;3.20;1.88;;;17.70;99.90;;;;;;5041058;28;20390;-86
2021/10/07 12:08:34;;;;;;;4.30;2.00;;;17.70;99.90;;;;;;5040987;28;20471;-87
2021/10/07 12:11:07;;;;;;;5.25;1.90;;;17.80;99.90;;;;;;5043713;28;20378;-86
2021/10/07 12:13:41;;;;;;;4.10;2.10;;;17.70;99.90;;;;;;5060561;28;20371;-87
2021/10/07 12:16:14;;;;;;;6.10;2.30;;;17.60;99.90;;;;;;5043665;28;20887;-86
2021/10/07 12:18:50;;;;;;;4.97;2.35;;;17.70;99.90;;;;;;5039444;28;20454;-87
2021/10/07 12:21:23;;;;;;;5.35;2.30;;;17.70;99.90;;;;;;5063227;28;20847;-88
2021/10/07 12:24:08;;;;;;;3.70;1.60;;;17.70;99.90;;;;;;5063418;28;20390;-86
2021/10/07 12:26:48;;;;;;;3.90;2.08;;;17.70;99.90;;;;;;5049604;28;20374;-86
2021/10/07 12:29:25;;;;;;;6.00;1.98;;;17.70;99.90;;;;;;5059562;28;20375;-86
2021/10/07 12:31:53;;;;;;;4.15;1.80;;;17.70;99.90;;;;;;5040282;28;20382;-86
2021/10/07 12:34:19;;;;;;;4.03;1.67;;;17.80;99.90;;;;;;5042163;28;20425;-86
2021/10/07 12:36:50;;;;;;;5.18;1.70;;;17.80;99.90;;;;;;5042859;28;20413;-87
2021/10/07 12:39:23;;;;;;;3.80;1.60;;;17.80;99.90;;;;;;5043029;28;20371;-85
2021/10/07 12:42:05;;;;;;;3.40;1.67;;;17.80;99.90;;;;;;5058077;28;20372;-85
2021/10/07 12:44:37;;;;;;;4.40;1.63;;;17.80;99.90;;;;;;5040598;28;20418;-85
2021/10/07 12:47:12;;;;;;;3.42;1.67;;;17.60;99.90;;;;;;5057217;28;20376;-84
2021/10/07 12:49:45;;;;;;;2.88;1.50;;;17.60;99.90;;;;;;5041236;28;20386;-86
2021/10/07 12:52:16;;;;;;;2.58;1.63;;;17.50;99.90;;;;;;5045964;28;20386;-86
2021/10/07 12:54:53;;;;;;;3.35;1.60;;;17.60;99.90;;;;;;5031297;28;20397;-86
2021/10/07 12:57:46;;;;;;;3.65;1.60;;;17.60;99.90;;;;;;5039301;28;20911;-86
2021/10/07 13:00:24;;;;;;;3.67;1.60;;;17.50;99.90;;;;;;5036368;28;20372;-86
2021/10/07 13:02:51;;;;;;;4.07;1.90;;;17.40;99.90;;;;;;5039592;28;20372;-86